Time;durP1;ratioP1;P1;durP2;ratioP2;P2;SDS_P1;SDS_P2;PMS_P1;PMS_P2;Temp;Humidity;BMP_temperature;BMP_pressure;BME280_temperature;BME280_humidity;BME280_pressure;Samples;Min_cycle;Max_cycle;Signal;HPM_P1;HPM_P2
2021/07/12 13:20:47;;;;;;;10.13;9.30;;;29.80;94.10;;;;;;6137270;23;20474;-49
2021/07/12 13:23:14;;;;;;;9.20;8.40;;;29.80;94.60;;;;;;6141784;23;20458;-47
2021/07/12 13:25:43;;;;;;;10.53;9.53;;;30.00;94.50;;;;;;6127842;23;20965;-52
2021/07/12 13:28:11;;;;;;;10.70;9.80;;;30.10;93.70;;;;;;6128174;23;20465;-51
2021/07/12 13:30:40;;;;;;;10.77;9.87;;;29.90;93.30;;;;;;6128189;23;20410;-49
2021/07/12 13:33:08;;;;;;;11.20;10.30;;;29.80;94.10;;;;;;6128175;23;20406;-51
2021/07/12 13:35:36;;;;;;;10.50;9.80;;;29.80;94.30;;;;;;6128150;23;20419;-49
2021/07/12 13:38:06;;;;;;;10.97;10.07;;;29.90;94.00;;;;;;6128122;23;20445;-52
2021/07/12 13:40:34;;;;;;;10.40;9.60;;;30.10;94.70;;;;;;6127867;23;20462;-49
2021/07/12 13:43:03;;;;;;;10.40;9.50;;;30.20;94.10;;;;;;6128011;23;20481;-51
2021/07/12 13:45:31;;;;;;;10.20;9.40;;;30.40;93.70;;;;;;6128112;23;20411;-47
2021/07/12 13:47:58;;;;;;;9.00;8.30;;;30.50;92.70;;;;;;6127717;23;20870;-53
2021/07/12 13:50:28;;;;;;;10.77;9.80;;;30.40;92.80;;;;;;6127304;23;20655;-48
2021/07/12 13:52:57;;;;;;;10.07;9.27;;;30.30;92.20;;;;;;6127146;23;20422;-46
2021/07/12 13:55:27;;;;;;;10.10;9.20;;;30.30;91.90;;;;;;6127936;23;20430;-52
2021/07/12 13:57:56;;;;;;;9.60;8.90;;;30.30;92.20;;;;;;6127690;23;20466;-49
2021/07/12 14:00:25;;;;;;;9.67;8.87;;;30.30;92.60;;;;;;6127725;23;20395;-48
2021/07/12 14:02:52;;;;;;;9.70;8.90;;;30.20;91.70;;;;;;6127169;23;20505;-50
2021/07/12 14:05:20;;;;;;;10.83;9.83;;;30.10;91.30;;;;;;6127309;23;20410;-53
2021/07/12 14:38:10;;;;;;;10.30;9.50;;;27.60;99.90;;;;;;6182744;23;20450;-48
2021/07/12 14:40:37;;;;;;;10.20;9.30;;;27.40;99.90;;;;;;6216711;23;20388;-50
2021/07/12 14:43:04;;;;;;;11.20;10.17;;;27.10;99.90;;;;;;6191139;23;20448;-45
2021/07/12 14:45:30;;;;;;;11.03;10.03;;;27.00;99.90;;;;;;6190040;23;20408;-49
2021/07/12 14:47:57;;;;;;;12.40;10.00;;;26.90;99.90;;;;;;6189448;23;20408;-50
2021/07/12 14:50:24;;;;;;;10.80;9.90;;;26.90;99.90;;;;;;6189512;23;20388;-52
2021/07/12 14:52:51;;;;;;;9.13;8.33;;;26.90;99.90;;;;;;6189753;23;20408;-52
2021/07/12 14:55:19;;;;;;;9.77;8.97;;;26.90;99.90;;;;;;6189861;23;20443;-51
2021/07/12 14:57:45;;;;;;;11.33;10.23;;;26.90;99.90;;;;;;6189805;23;20492;-52
2021/07/12 15:00:13;;;;;;;11.07;10.07;;;26.80;99.90;;;;;;6189812;23;20724;-48
2021/07/12 15:02:40;;;;;;;10.30;9.40;;;26.90;99.90;;;;;;6189788;23;20495;-48
2021/07/12 15:05:08;;;;;;;10.73;9.83;;;26.80;99.90;;;;;;6189534;23;20864;-46
2021/07/12 15:07:35;;;;;;;10.30;9.50;;;26.80;99.90;;;;;;6189947;23;20942;-50
2021/07/12 15:10:01;;;;;;;10.20;9.30;;;26.90;99.90;;;;;;6212478;23;20400;-50
2021/07/12 15:12:32;;;;;;;10.70;9.90;;;26.90;99.90;;;;;;6215701;23;20495;-48
2021/07/12 15:15:00;;;;;;;11.40;10.30;;;27.00;99.90;;;;;;6215884;23;20392;-51
2021/07/12 15:17:27;;;;;;;10.80;9.80;;;27.00;99.90;;;;;;6215509;23;20397;-52
2021/07/12 15:19:55;;;;;;;10.17;9.37;;;27.10;99.90;;;;;;6215258;23;20699;-48
2021/07/12 15:22:22;;;;;;;13.50;9.87;;;27.20;99.90;;;;;;6215852;23;20393;-52
2021/07/12 15:24:48;;;;;;;11.73;10.73;;;27.20;99.90;;;;;;6215132;23;20404;-53
2021/07/12 15:27:15;;;;;;;10.40;9.30;;;27.30;99.90;;;;;;6215020;23;20427;-52
2021/07/12 15:29:43;;;;;;;14.80;10.10;;;27.30;99.90;;;;;;6214789;23;20401;-53
2021/07/12 15:32:10;;;;;;;11.80;9.37;;;27.30;99.90;;;;;;6214747;23;20427;-52
2021/07/12 15:34:36;;;;;;;14.70;13.30;;;27.30;99.90;;;;;;6214652;23;20400;-51
2021/07/12 15:37:05;;;;;;;14.00;11.60;;;27.20;99.90;;;;;;6214104;23;20429;-53
2021/07/12 15:39:35;;;;;;;11.73;9.70;;;27.20;99.90;;;;;;6213348;23;20393;-51
2021/07/12 15:42:04;;;;;;;12.37;11.27;;;27.10;99.90;;;;;;6212548;23;20415;-50
2021/07/12 15:44:30;;;;;;;11.03;10.07;;;27.10;99.90;;;;;;6212558;23;20421;-51
2021/07/12 15:47:00;;;;;;;11.00;10.00;;;27.00;99.90;;;;;;6212685;23;20397;-47
2021/07/12 15:49:26;;;;;;;11.47;10.37;;;27.00;99.90;;;;;;6212576;23;20389;-52
2021/07/12 15:51:56;;;;;;;12.30;11.10;;;26.90;99.90;;;;;;6211814;23;20401;-52
2021/07/12 15:54:22;;;;;;;10.40;9.50;;;26.90;99.90;;;;;;6213131;23;20381;-52
2021/07/12 15:56:49;;;;;;;11.43;10.33;;;26.80;99.90;;;;;;6213810;23;20405;-51
2021/07/12 15:59:16;;;;;;;12.43;10.37;;;26.80;99.90;;;;;;6212975;23;20471;-59
2021/07/12 16:01:45;;;;;;;10.30;9.23;;;26.70;99.90;;;;;;6212842;23;20483;-52
2021/07/12 16:04:15;;;;;;;10.27;9.37;;;26.60;99.90;;;;;;6212735;23;20429;-50
2021/07/12 16:06:42;;;;;;;9.70;8.63;;;26.60;99.90;;;;;;6212367;23;20401;-51
2021/07/12 16:09:09;;;;;;;10.83;9.20;;;26.50;99.90;;;;;;6212407;23;20421;-52
2021/07/12 16:11:35;;;;;;;10.53;9.23;;;26.50;99.90;;;;;;6212540;23;20465;-52
2021/07/12 16:14:03;;;;;;;10.30;9.30;;;26.40;99.90;;;;;;6212903;23;20397;-52
2021/07/12 16:16:31;;;;;;;10.73;9.73;;;26.50;99.90;;;;;;6213802;23;20429;-53
2021/07/12 16:19:01;;;;;;;11.47;10.13;;;26.40;99.90;;;;;;6214440;23;20432;-48
2021/07/12 16:21:29;;;;;;;9.93;9.03;;;26.40;99.90;;;;;;6214406;23;20389;-49
2021/07/12 16:23:55;;;;;;;9.40;8.60;;;26.30;99.90;;;;;;6212320;23;20433;-53
2021/07/12 16:26:22;;;;;;;10.17;9.37;;;26.40;99.90;;;;;;6212539;23;20436;-53
2021/07/12 16:28:49;;;;;;;10.60;9.60;;;26.40;99.90;;;;;;6211601;23;20401;-51
2021/07/12 16:31:18;;;;;;;10.13;9.20;;;26.50;99.90;;;;;;6212045;23;20432;-50
2021/07/12 16:33:47;;;;;;;10.43;9.27;;;26.50;99.90;;;;;;6212340;23;20405;-53
2021/07/12 16:36:17;;;;;;;10.37;9.47;;;26.60;99.90;;;;;;6211994;23;20415;-53
2021/07/12 16:38:45;;;;;;;11.03;10.00;;;26.60;99.90;;;;;;6212001;23;20396;-53
2021/07/12 16:41:12;;;;;;;13.43;10.83;;;26.70;99.90;;;;;;6212141;23;20397;-52
2021/07/12 16:43:39;;;;;;;10.77;9.73;;;26.70;99.90;;;;;;6212567;23;20440;-48
2021/07/12 16:46:06;;;;;;;13.63;11.67;;;26.70;99.90;;;;;;6211779;23;20463;-48
2021/07/12 16:48:33;;;;;;;13.27;12.00;;;26.80;99.90;;;;;;6211198;23;20428;-47
2021/07/12 16:51:00;;;;;;;13.00;11.80;;;26.80;99.90;;;;;;6210383;23;20389;-49
2021/07/12 16:53:27;;;;;;;11.60;10.70;;;26.70;99.90;;;;;;6206826;23;20479;-49
2021/07/12 16:55:55;;;;;;;10.33;9.33;;;26.70;99.90;;;;;;6209956;23;20405;-53
2021/07/12 16:58:22;;;;;;;10.20;9.20;;;26.70;99.90;;;;;;6213988;23;20389;-51
2021/07/12 17:00:48;;;;;;;10.23;9.33;;;26.70;99.90;;;;;;6213662;23;20396;-52
2021/07/12 17:03:15;;;;;;;10.70;9.73;;;26.60;99.90;;;;;;6214426;23;20445;-49
